createdAt,value
2018-06-15T00:00:05.533Z,7.50
2018-06-15T00:02:34.643Z,8.83
2018-06-15T00:05:03.106Z,7.47
2018-06-15T00:07:31.396Z,8.13
2018-06-15T00:10:00.464Z,7.17
2018-06-15T00:12:28.822Z,6.67
2018-06-15T00:14:56.797Z,8.40
2018-06-15T00:17:24.822Z,8.47
2018-06-15T00:19:52.952Z,9.10
2018-06-15T00:22:20.979Z,8.50
2018-06-15T00:24:48.984Z,7.50
2018-06-15T00:27:16.946Z,7.93
2018-06-15T00:29:44.872Z,8.10
2018-06-15T00:32:12.822Z,7.43
2018-06-15T00:34:40.760Z,7.93
2018-06-15T00:37:08.704Z,7.80
2018-06-15T00:39:36.789Z,7.10
2018-06-15T00:42:05.203Z,7.73
2018-06-15T00:44:33.337Z,7.80
2018-06-15T00:47:01.720Z,7.83
2018-06-15T00:49:30.413Z,8.70
2018-06-15T00:51:58.892Z,8.20
2018-06-15T00:54:26.833Z,7.00
2018-06-15T00:57:00.575Z,9.03
2018-06-15T00:59:28.762Z,6.80
2018-06-15T01:01:56.711Z,7.33
2018-06-15T01:04:25.656Z,7.93
2018-06-15T01:06:53.689Z,8.07
2018-06-15T01:09:21.811Z,7.03
2018-06-15T01:11:49.818Z,6.80
2018-06-15T01:14:17.813Z,7.70
2018-06-15T01:16:45.764Z,7.80
2018-06-15T01:19:13.838Z,6.80
2018-06-15T01:21:41.776Z,6.90
2018-06-15T01:24:09.852Z,7.17
2018-06-15T01:26:38.005Z,6.47
2018-06-15T01:29:06.140Z,7.37
2018-06-15T01:31:35.724Z,6.57
2018-06-15T01:34:04.055Z,7.07
2018-06-15T01:36:32.274Z,7.70
2018-06-15T01:39:00.573Z,6.90
2018-06-15T01:41:28.744Z,7.50
2018-06-15T01:43:56.797Z,7.33
2018-06-15T01:46:24.723Z,8.13
2018-06-15T01:48:52.811Z,7.90
2018-06-15T01:51:20.992Z,8.03
2018-06-15T01:53:49.016Z,8.33
2018-06-15T01:56:16.950Z,7.20
2018-06-15T01:58:44.901Z,7.77
2018-06-15T02:01:12.917Z,7.60
2018-06-15T02:03:40.769Z,6.87
2018-06-15T02:06:08.717Z,7.23
2018-06-15T02:08:36.860Z,7.20
2018-06-15T02:11:05.024Z,7.23
2018-06-15T02:13:33.534Z,7.20
2018-06-15T02:16:01.868Z,8.00
2018-06-15T02:18:30.331Z,7.33
2018-06-15T02:20:58.629Z,7.83
2018-06-15T02:23:26.576Z,7.40
2018-06-15T02:25:54.545Z,6.70
2018-06-15T02:28:22.723Z,6.87
2018-06-15T02:30:51.110Z,7.00
2018-06-15T02:33:19.077Z,7.60
2018-06-15T02:35:47.027Z,6.83
2018-06-15T02:38:15.025Z,6.93
2018-06-15T02:40:43.074Z,6.57
2018-06-15T02:43:10.995Z,5.83
2018-06-15T02:45:38.930Z,7.67
2018-06-15T02:48:06.990Z,8.10
2018-06-15T02:50:35.128Z,7.50
2018-06-15T02:53:03.308Z,7.83
2018-06-15T02:55:31.886Z,7.10
2018-06-15T02:58:00.127Z,8.00
2018-06-15T03:00:28.405Z,7.20
2018-06-15T03:02:56.527Z,7.50
2018-06-15T03:05:24.438Z,7.53
2018-06-15T03:07:52.702Z,7.60
2018-06-15T03:10:21.177Z,7.30
2018-06-15T03:12:49.285Z,6.73
2018-06-15T03:15:17.250Z,7.10
2018-06-15T03:17:45.196Z,7.20
2018-06-15T03:20:13.153Z,7.10
2018-06-15T03:22:41.117Z,7.70
2018-06-15T03:25:09.119Z,7.67
2018-06-15T03:27:37.196Z,7.90
2018-06-15T03:30:05.370Z,6.63
2018-06-15T03:32:33.621Z,8.30
2018-06-15T03:35:02.043Z,9.00
2018-06-15T03:37:30.304Z,8.50
2018-06-15T03:39:58.352Z,7.40
2018-06-15T03:42:26.309Z,7.13
2018-06-15T03:44:54.285Z,6.90
2018-06-15T03:47:22.489Z,7.20
2018-06-15T03:49:50.629Z,7.57
2018-06-15T03:52:18.583Z,12.13
2018-06-15T03:54:46.533Z,7.77
2018-06-15T03:57:14.498Z,7.10
2018-06-15T03:59:42.460Z,6.87
2018-06-15T04:02:10.439Z,6.63
2018-06-15T04:04:38.380Z,6.23
2018-06-15T04:07:06.625Z,6.83
2018-06-15T04:09:35.058Z,7.20
2018-06-15T04:12:03.448Z,7.60
2018-06-15T04:14:31.833Z,6.97
2018-06-15T04:17:00.270Z,8.07
2018-06-15T04:19:28.361Z,8.57
2018-06-15T04:21:56.295Z,10.67
2018-06-15T04:24:24.286Z,8.50
2018-06-15T04:26:52.977Z,7.03
2018-06-15T04:29:21.086Z,7.80
2018-06-15T04:31:49.072Z,6.80
2018-06-15T04:34:17.000Z,6.57
2018-06-15T04:36:44.969Z,7.73
2018-06-15T04:39:12.922Z,7.33
2018-06-15T04:41:51.343Z,8.10
2018-06-15T04:44:19.380Z,9.23
2018-06-15T04:46:47.348Z,9.27
2018-06-15T04:49:15.291Z,7.13
2018-06-15T04:51:43.257Z,6.60
2018-06-15T04:54:11.202Z,7.83
2018-06-15T04:56:39.478Z,7.60
2018-06-15T04:59:07.839Z,6.73
2018-06-15T05:01:35.948Z,7.10
2018-06-15T05:04:04.683Z,7.50
2018-06-15T05:06:33.399Z,6.67
2018-06-15T05:09:01.743Z,7.47
2018-06-15T05:11:30.055Z,7.33
2018-06-15T05:13:58.800Z,7.20
2018-06-15T05:16:26.800Z,7.23
2018-06-15T05:18:54.788Z,9.30
2018-06-15T05:21:23.053Z,7.80
2018-06-15T05:23:51.054Z,7.30
2018-06-15T05:26:19.153Z,8.90
2018-06-15T05:28:47.263Z,8.70
2018-06-15T05:31:15.244Z,8.33
2018-06-15T05:33:43.810Z,9.50
2018-06-15T05:36:12.052Z,7.70
2018-06-15T05:38:39.993Z,8.33
2018-06-15T05:41:08.073Z,7.97
2018-06-15T05:43:36.515Z,11.00
2018-06-15T05:46:04.813Z,8.87
2018-06-15T05:48:33.302Z,8.03
2018-06-15T05:51:02.438Z,9.00
2018-06-15T05:53:31.324Z,7.97
2018-06-15T05:56:00.617Z,7.13
2018-06-15T05:58:29.105Z,8.33
2018-06-15T06:00:57.109Z,7.93
2018-06-15T06:03:25.078Z,8.57
2018-06-15T06:05:53.227Z,7.40
2018-06-15T06:08:21.615Z,7.07
2018-06-15T06:10:50.187Z,6.43
2018-06-15T06:13:18.517Z,5.97
2018-06-15T06:15:46.708Z,6.50
2018-06-15T06:18:14.834Z,7.93
2018-06-15T06:20:42.803Z,5.70
2018-06-15T06:23:10.910Z,6.00
2018-06-15T06:25:39.492Z,6.00
2018-06-15T06:28:08.000Z,6.03
2018-06-15T06:30:36.412Z,6.47
2018-06-15T06:33:04.628Z,6.50
2018-06-15T06:35:33.606Z,6.30
2018-06-15T06:38:02.408Z,6.70
2018-06-15T06:40:30.766Z,7.80
2018-06-15T06:43:01.486Z,7.00
2018-06-15T06:45:30.178Z,6.67
2018-06-15T06:47:58.945Z,5.90
2018-06-15T06:50:27.039Z,6.10
2018-06-15T06:52:55.079Z,6.57
2018-06-15T06:55:23.199Z,5.80
2018-06-15T06:57:52.022Z,6.20
2018-06-15T07:00:21.136Z,6.40
2018-06-15T07:02:49.264Z,5.87
2018-06-15T07:05:17.279Z,8.83
2018-06-15T07:07:45.255Z,7.77
2018-06-15T07:10:13.244Z,7.20
2018-06-15T07:12:43.309Z,6.50
2018-06-15T07:15:12.193Z,6.10
2018-06-15T07:17:40.189Z,6.40
2018-06-15T07:20:17.788Z,6.20
2018-06-15T07:22:45.801Z,6.30
2018-06-15T07:27:53.242Z,6.42
2018-06-15T07:30:21.455Z,6.97
2018-06-15T07:32:49.993Z,7.20
2018-06-15T07:35:22.718Z,6.10
2018-06-15T07:37:51.128Z,7.00
2018-06-15T07:40:19.704Z,6.53
2018-06-15T07:42:48.018Z,6.93
2018-06-15T07:45:16.151Z,7.63
2018-06-15T07:47:44.463Z,6.17
2018-06-15T07:50:13.520Z,6.97
2018-06-15T07:52:41.792Z,7.10
2018-06-15T07:55:09.910Z,6.93
2018-06-15T07:57:38.179Z,7.37
2018-06-15T08:00:09.022Z,6.70
2018-06-15T08:02:37.290Z,6.03
2018-06-15T08:05:05.487Z,5.70
2018-06-15T08:07:34.185Z,6.90
2018-06-15T08:10:03.603Z,6.20
2018-06-15T08:12:32.274Z,6.07
2018-06-15T08:15:00.959Z,6.30
2018-06-15T08:17:30.422Z,7.00
2018-06-15T08:19:58.854Z,6.87
2018-06-15T08:22:27.170Z,7.63
2018-06-15T08:24:55.494Z,7.70
2018-06-15T08:27:23.792Z,5.90
2018-06-15T08:29:51.808Z,8.07
2018-06-15T08:32:20.294Z,6.03
2018-06-15T08:34:48.660Z,6.70
2018-06-15T08:37:17.039Z,6.77
2018-06-15T08:39:45.137Z,7.40
2018-06-15T08:42:13.370Z,5.93
2018-06-15T08:44:41.735Z,6.77
2018-06-15T08:47:10.288Z,7.77
2018-06-15T08:49:38.471Z,5.50
2018-06-15T08:52:07.066Z,6.53
2018-06-15T08:54:35.606Z,6.83
2018-06-15T08:57:03.969Z,5.50
2018-06-15T08:59:32.688Z,5.53
2018-06-15T09:02:01.557Z,6.10
2018-06-15T09:04:31.290Z,6.40
2018-06-15T09:07:00.124Z,5.73
2018-06-15T09:09:29.013Z,6.73
2018-06-15T09:11:57.218Z,5.73
2018-06-15T09:14:25.457Z,6.13
2018-06-15T09:16:53.717Z,6.83
2018-06-15T09:19:25.894Z,5.43
2018-06-15T09:21:54.896Z,6.73
2018-06-15T09:24:23.315Z,5.27
2018-06-15T09:26:53.035Z,6.63
2018-06-15T09:29:21.509Z,8.20
2018-06-15T09:31:49.881Z,6.17
2018-06-15T09:34:18.843Z,6.80
2018-06-15T09:36:47.030Z,6.30
2018-06-15T09:39:15.217Z,6.40
2018-06-15T09:41:43.690Z,6.00
2018-06-15T09:44:11.882Z,5.93
2018-06-15T09:46:40.199Z,5.17
2018-06-15T09:49:08.573Z,8.57
2018-06-15T09:51:37.521Z,5.67
2018-06-15T09:54:06.876Z,5.70
2018-06-15T09:56:35.494Z,5.00
2018-06-15T09:59:03.969Z,5.40
2018-06-15T10:01:33.051Z,5.20
2018-06-15T10:04:01.862Z,5.53
2018-06-15T10:06:30.218Z,6.40
2018-06-15T10:08:58.691Z,4.80
2018-06-15T10:11:26.755Z,4.80
2018-06-15T10:13:55.174Z,5.07
2018-06-15T10:16:23.394Z,6.57
2018-06-15T10:18:51.370Z,7.10
2018-06-15T10:21:19.377Z,4.67
2018-06-15T10:23:47.630Z,5.70
2018-06-15T10:26:15.859Z,7.70
2018-06-15T10:28:43.981Z,6.00
2018-06-15T10:31:14.167Z,5.23
2018-06-15T10:33:42.428Z,4.87
2018-06-15T10:36:10.855Z,4.70
2018-06-15T10:38:39.423Z,6.27
2018-06-15T10:41:07.968Z,5.90
2018-06-15T10:43:36.190Z,5.47
2018-06-15T10:46:05.480Z,5.60
2018-06-15T10:48:33.751Z,6.80
2018-06-15T10:51:02.842Z,6.27
2018-06-15T10:53:31.628Z,6.10
2018-06-15T10:56:00.708Z,5.73
2018-06-15T10:58:29.406Z,5.57
2018-06-15T11:00:57.936Z,5.60
2018-06-15T11:03:26.314Z,6.60
2018-06-15T11:05:54.722Z,5.93
2018-06-15T11:08:23.165Z,6.27
2018-06-15T11:10:51.322Z,4.80
2018-06-15T11:13:19.588Z,4.53
2018-06-15T11:15:47.722Z,5.93
2018-06-15T11:18:15.832Z,5.93
2018-06-15T11:20:43.986Z,5.37
2018-06-15T11:23:12.094Z,5.13
2018-06-15T11:25:40.593Z,5.80
2018-06-15T11:28:09.079Z,5.97
2018-06-15T11:30:38.203Z,5.47
2018-06-15T11:33:06.861Z,5.10
2018-06-15T11:35:35.354Z,4.50
2018-06-15T11:38:04.023Z,5.40
2018-06-15T11:40:33.105Z,4.90
2018-06-15T11:43:02.388Z,6.00
2018-06-15T11:45:31.817Z,6.40
2018-06-15T11:48:00.822Z,5.80
2018-06-15T11:50:29.346Z,6.90
2018-06-15T11:53:02.522Z,5.27
2018-06-15T11:55:31.166Z,6.40
2018-06-15T11:57:59.696Z,5.73
2018-06-15T12:00:28.019Z,5.00
2018-06-15T12:02:56.512Z,5.40
2018-06-15T12:05:24.884Z,5.53
2018-06-15T12:07:53.234Z,6.30
2018-06-15T12:10:21.505Z,5.70
2018-06-15T12:12:49.979Z,6.50
2018-06-15T12:15:18.442Z,4.50
2018-06-15T12:17:46.747Z,4.57
2018-06-15T12:20:14.829Z,6.50
2018-06-15T12:22:42.895Z,6.40
2018-06-15T12:25:10.925Z,5.77
2018-06-15T12:27:39.449Z,5.83
2018-06-15T12:30:07.933Z,4.53
2018-06-15T12:32:36.691Z,6.20
2018-06-15T12:35:04.912Z,4.90
2018-06-15T12:37:34.384Z,4.57
2018-06-15T12:40:03.887Z,4.77
2018-06-15T12:42:33.353Z,6.00
2018-06-15T12:45:02.728Z,5.57
2018-06-15T12:47:32.340Z,5.40
2018-06-15T12:50:02.526Z,4.33
2018-06-15T12:52:31.887Z,5.10
2018-06-15T12:55:02.234Z,4.83
2018-06-15T12:57:31.170Z,5.20
2018-06-15T12:59:59.875Z,5.67
2018-06-15T13:02:29.419Z,5.40
2018-06-15T13:04:57.824Z,5.70
2018-06-15T13:07:26.366Z,4.53
2018-06-15T13:09:55.230Z,3.10
2018-06-15T13:12:24.086Z,3.83
2018-06-15T13:14:52.807Z,4.00
2018-06-15T13:17:21.210Z,4.33
2018-06-15T13:19:49.828Z,5.10
2018-06-15T13:22:17.998Z,4.80
2018-06-15T13:24:46.424Z,3.97
2018-06-15T13:27:14.574Z,4.30
2018-06-15T13:29:43.129Z,5.27
2018-06-15T13:32:11.365Z,3.50
2018-06-15T13:34:39.895Z,4.03
2018-06-15T13:37:08.742Z,3.83
2018-06-15T13:39:37.451Z,4.30
2018-06-15T13:42:06.248Z,4.57
2018-06-15T13:44:35.155Z,4.20
2018-06-15T13:47:06.933Z,3.90
2018-06-15T13:49:35.886Z,4.47
2018-06-15T13:52:05.002Z,4.13
2018-06-15T13:54:33.961Z,4.27
2018-06-15T13:57:03.531Z,4.53
2018-06-15T13:59:32.999Z,4.50
2018-06-15T14:02:02.543Z,3.83
2018-06-15T14:04:31.753Z,4.40
2018-06-15T14:07:01.111Z,4.10
2018-06-15T14:09:31.193Z,3.73
2018-06-15T14:11:59.987Z,3.30
2018-06-15T14:14:28.202Z,2.93
2018-06-15T14:16:56.698Z,3.00
2018-06-15T14:19:24.834Z,3.50
2018-06-15T14:21:53.699Z,3.40
2018-06-15T14:24:22.246Z,3.40
2018-06-15T14:26:50.828Z,3.70
2018-06-15T14:29:19.404Z,4.67
2018-06-15T14:31:48.298Z,4.70
2018-06-15T14:34:16.537Z,4.50
2018-06-15T14:36:44.606Z,3.90
2018-06-15T14:39:12.620Z,3.53
2018-06-15T14:41:42.805Z,4.87
2018-06-15T14:44:10.876Z,3.30
2018-06-15T14:46:39.433Z,3.10
2018-06-15T14:49:07.734Z,2.73
2018-06-15T14:51:36.232Z,4.27
2018-06-15T14:54:04.736Z,3.63
2018-06-15T14:56:33.857Z,3.80
2018-06-15T14:59:02.710Z,3.80
2018-06-15T15:01:31.395Z,3.43
2018-06-15T15:04:00.489Z,3.60
2018-06-15T15:06:29.149Z,3.53
2018-06-15T15:08:57.373Z,3.83
2018-06-15T15:11:25.607Z,2.90
2018-06-15T15:13:53.682Z,3.10
2018-06-15T15:16:21.942Z,4.70
2018-06-15T15:18:50.688Z,3.37
2018-06-15T15:21:18.975Z,3.20
2018-06-15T15:23:47.692Z,4.27
2018-06-15T15:26:15.800Z,3.00
2018-06-15T15:28:44.141Z,3.50
2018-06-15T15:31:12.547Z,2.93
2018-06-15T15:33:40.763Z,3.67
2018-06-15T15:36:08.970Z,4.27
2018-06-15T15:38:37.266Z,4.33
2018-06-15T15:41:05.814Z,3.80
2018-06-15T15:43:36.032Z,3.50
2018-06-15T15:46:04.689Z,4.03
2018-06-15T15:48:33.398Z,4.40
2018-06-15T15:51:02.589Z,5.00
2018-06-15T15:53:31.483Z,3.87
2018-06-15T15:56:00.805Z,3.83
2018-06-15T15:58:29.781Z,3.33
2018-06-15T16:00:58.328Z,4.30
2018-06-15T16:03:28.515Z,3.40
2018-06-15T16:05:57.413Z,3.67
2018-06-15T16:08:25.729Z,3.33
2018-06-15T16:10:54.217Z,3.40
2018-06-15T16:13:23.205Z,3.30
2018-06-15T16:15:51.714Z,4.10
2018-06-15T16:18:19.902Z,3.23
2018-06-15T16:20:48.090Z,3.57
2018-06-15T16:23:16.293Z,3.57
2018-06-15T16:25:44.323Z,3.50
2018-06-15T16:28:12.329Z,2.97
2018-06-15T16:30:40.537Z,3.97
2018-06-15T16:33:09.056Z,3.23
2018-06-15T16:35:37.465Z,3.63
2018-06-15T16:38:05.933Z,3.83
2018-06-15T16:40:34.536Z,3.90
2018-06-15T16:43:03.399Z,3.10
2018-06-15T16:45:32.005Z,4.07
2018-06-15T16:48:00.832Z,3.50
2018-06-15T16:50:31.000Z,4.17
2018-06-15T16:53:00.270Z,3.40
2018-06-15T16:55:28.407Z,3.77
2018-06-15T16:57:56.822Z,3.80
2018-06-15T17:00:25.287Z,3.57
2018-06-15T17:02:54.585Z,3.40
2018-06-15T17:05:22.724Z,3.87
2018-06-15T17:07:50.996Z,4.40
2018-06-15T17:10:18.991Z,3.97
2018-06-15T17:12:46.937Z,4.00
2018-06-15T17:15:14.919Z,3.27
2018-06-15T17:17:43.235Z,3.47
2018-06-15T17:20:11.270Z,3.70
2018-06-15T17:22:39.835Z,4.13
2018-06-15T17:25:08.236Z,3.00
2018-06-15T17:27:36.660Z,5.03
2018-06-15T17:30:05.285Z,4.10
2018-06-15T17:32:33.663Z,4.13
2018-06-15T17:35:02.094Z,4.13
2018-06-15T17:37:30.434Z,3.97
2018-06-15T17:39:59.680Z,3.73
2018-06-15T17:42:27.881Z,3.80
2018-06-15T17:44:56.456Z,4.07
2018-06-15T17:47:24.551Z,3.77
2018-06-15T17:49:52.650Z,3.10
2018-06-15T17:52:21.437Z,3.27
2018-06-15T17:54:49.939Z,4.07
2018-06-15T17:57:17.954Z,3.37
2018-06-15T17:59:46.702Z,3.30
2018-06-15T18:02:14.617Z,3.23
2018-06-15T18:04:42.875Z,3.80
2018-06-15T18:07:11.141Z,5.50
2018-06-15T18:09:39.402Z,3.47
2018-06-15T18:12:07.928Z,4.83
2018-06-15T18:14:36.363Z,3.57
2018-06-15T18:17:04.999Z,4.87
2018-06-15T18:19:33.997Z,4.00
2018-06-15T18:22:02.936Z,4.27
2018-06-15T18:24:31.348Z,4.43
2018-06-15T18:26:59.828Z,5.10
2018-06-15T18:29:28.461Z,4.70
2018-06-15T18:31:56.721Z,4.47
2018-06-15T18:34:25.293Z,4.20
2018-06-15T18:36:53.382Z,4.50
2018-06-15T18:39:23.311Z,3.77
2018-06-15T18:41:51.642Z,4.37
2018-06-15T18:44:19.963Z,4.73
2018-06-15T18:46:48.270Z,5.43
2018-06-15T18:49:16.338Z,4.27
2018-06-15T18:51:44.641Z,3.80
2018-06-15T18:54:12.663Z,5.03
2018-06-15T18:56:41.792Z,5.00
2018-06-15T18:59:09.997Z,5.90
2018-06-15T19:01:38.573Z,3.80
2018-06-15T19:04:07.235Z,5.67
2018-06-15T19:06:35.901Z,4.17
2018-06-15T19:09:06.320Z,5.57
2018-06-15T19:11:35.094Z,5.63
2018-06-15T19:14:03.530Z,5.70
2018-06-15T19:16:31.953Z,5.30
2018-06-15T19:19:00.570Z,5.10
2018-06-15T19:21:28.976Z,4.23
2018-06-15T19:23:57.300Z,5.50
2018-06-15T19:26:25.569Z,5.47
2018-06-15T19:28:53.948Z,4.60
2018-06-15T19:31:22.258Z,5.43
2018-06-15T19:33:50.491Z,4.90
2018-06-15T19:36:18.971Z,5.43
2018-06-15T19:38:48.781Z,4.40
2018-06-15T19:41:16.951Z,5.47
2018-06-15T19:43:45.156Z,5.70
2018-06-15T19:46:13.898Z,6.07
2018-06-15T19:48:43.446Z,6.53
2018-06-15T19:51:11.531Z,6.67
2018-06-15T19:53:40.374Z,7.63
2018-06-15T19:56:09.085Z,6.17
2018-06-15T19:58:37.579Z,6.53
2018-06-15T20:01:06.156Z,7.60
2018-06-15T20:03:35.046Z,5.70
2018-06-15T20:06:03.165Z,7.40
2018-06-15T20:08:31.574Z,8.17
2018-06-15T20:10:59.949Z,8.07
2018-06-15T20:13:27.939Z,6.17
2018-06-15T20:15:57.517Z,6.90
2018-06-15T20:18:26.130Z,6.83
2018-06-15T20:20:54.722Z,6.43
2018-06-15T20:23:22.867Z,6.57
2018-06-15T20:25:50.873Z,6.20
2018-06-15T20:28:19.018Z,6.83
2018-06-15T20:30:47.611Z,7.47
2018-06-15T20:33:15.781Z,6.83
2018-06-15T20:35:43.967Z,6.10
2018-06-15T20:38:12.404Z,7.77
2018-06-15T20:40:41.470Z,6.60
2018-06-15T20:43:09.973Z,6.60
2018-06-15T20:45:38.269Z,7.00
2018-06-15T20:48:06.811Z,7.13
2018-06-15T20:50:35.083Z,7.00
2018-06-15T20:53:03.772Z,6.23
2018-06-15T20:55:32.216Z,7.03
2018-06-15T20:58:00.879Z,7.37
2018-06-15T21:00:29.198Z,9.37
2018-06-15T21:02:57.224Z,8.10
2018-06-15T21:05:25.400Z,8.23
2018-06-15T21:07:53.532Z,7.50
2018-06-15T21:10:21.632Z,7.37
2018-06-15T21:12:49.646Z,7.73
2018-06-15T21:15:17.763Z,8.77
2018-06-15T21:17:45.745Z,7.47
2018-06-15T21:20:13.828Z,7.57
2018-06-15T21:22:41.932Z,8.90
2018-06-15T21:25:10.033Z,7.90
2018-06-15T21:27:38.306Z,7.33
2018-06-15T21:30:07.208Z,8.87
2018-06-15T21:32:35.744Z,8.17
2018-06-15T21:35:03.906Z,9.93
2018-06-15T21:37:32.736Z,8.40
2018-06-15T21:40:01.261Z,7.97
2018-06-15T21:42:29.429Z,8.70
2018-06-15T21:44:58.103Z,8.57
2018-06-15T21:47:26.460Z,8.47
2018-06-15T21:49:55.679Z,9.23
2018-06-15T21:52:24.846Z,9.50
2018-06-15T21:54:53.001Z,10.90
2018-06-15T21:57:21.386Z,10.33
2018-06-15T21:59:49.363Z,9.00
2018-06-15T22:02:17.376Z,9.17
2018-06-15T22:04:45.390Z,8.47
2018-06-15T22:07:13.460Z,8.90
2018-06-15T22:09:41.730Z,9.73
2018-06-15T22:12:10.359Z,10.27
2018-06-15T22:14:40.149Z,9.40
2018-06-15T22:17:08.881Z,8.80
2018-06-15T22:19:37.610Z,8.50
2018-06-15T22:22:05.885Z,9.63
2018-06-15T22:24:34.785Z,8.53
2018-06-15T22:27:03.069Z,9.73
2018-06-15T22:29:31.461Z,8.73
2018-06-15T22:32:01.093Z,8.90
2018-06-15T22:34:29.377Z,10.70
2018-06-15T22:36:57.354Z,8.27
2018-06-15T22:39:26.511Z,11.60
2018-06-15T22:41:54.572Z,9.47
2018-06-15T22:44:22.594Z,10.17
2018-06-15T22:46:50.753Z,9.63
2018-06-15T22:49:18.735Z,9.60
2018-06-15T22:51:46.692Z,10.43
2018-06-15T22:54:14.653Z,10.87
2018-06-15T22:56:42.648Z,10.57
2018-06-15T22:59:10.840Z,10.47
2018-06-15T23:01:40.074Z,10.20
2018-06-15T23:04:08.209Z,10.33
2018-06-15T23:06:36.377Z,11.00
2018-06-15T23:09:06.544Z,10.77
2018-06-15T23:11:34.755Z,11.20
2018-06-15T23:14:03.193Z,9.63
2018-06-15T23:16:31.481Z,11.33
2018-06-15T23:19:00.129Z,10.40
2018-06-15T23:21:28.088Z,10.27
2018-06-15T23:23:56.095Z,9.93
2018-06-15T23:26:24.073Z,11.43
2018-06-15T23:28:52.134Z,10.93
2018-06-15T23:31:20.225Z,10.40
2018-06-15T23:33:48.170Z,10.37
2018-06-15T23:36:16.718Z,9.63
2018-06-15T23:38:44.904Z,11.07
2018-06-15T23:41:12.859Z,11.70
2018-06-15T23:43:40.856Z,9.17
2018-06-15T23:46:08.845Z,11.40
2018-06-15T23:48:37.129Z,10.60
2018-06-15T23:51:05.735Z,11.70
2018-06-15T23:53:34.180Z,11.97
2018-06-15T23:56:02.439Z,10.87
2018-06-15T23:58:30.815Z,10.10
